createdAt,value
2023-04-18T00:00:24.683Z,88.48
2023-04-18T00:03:16.043Z,89.00
2023-04-18T00:06:06.532Z,88.12
2023-04-18T00:08:54.983Z,89.25
2023-04-18T00:11:43.599Z,88.36
2023-04-18T00:14:34.222Z,88.27
2023-04-18T00:17:22.634Z,87.58
2023-04-18T00:20:12.795Z,88.20
2023-04-18T00:23:02.780Z,88.54
2023-04-18T00:25:51.296Z,88.04
2023-04-18T00:28:39.785Z,88.29
2023-04-18T00:31:28.187Z,88.33
2023-04-18T00:34:16.587Z,87.99
2023-04-18T00:37:07.026Z,87.75
2023-04-18T00:39:56.873Z,87.58
2023-04-18T00:42:45.297Z,87.89
2023-04-18T00:45:35.770Z,87.68
2023-04-18T00:48:24.682Z,87.87
2023-04-18T00:51:13.399Z,87.75
2023-04-18T00:54:01.953Z,87.72
2023-04-18T00:56:51.717Z,87.77
2023-04-18T00:59:40.659Z,87.78
2023-04-18T01:02:30.571Z,86.98
2023-04-18T01:05:21.194Z,87.28
2023-04-18T01:08:09.567Z,86.53
2023-04-18T01:10:57.989Z,87.28
2023-04-18T01:14:01.572Z,86.59
2023-04-18T01:16:49.954Z,86.00
2023-04-18T01:19:40.739Z,87.00
2023-04-18T01:22:29.924Z,86.53
2023-04-18T01:25:19.708Z,86.33
2023-04-18T01:28:09.080Z,86.93
2023-04-18T01:30:57.587Z,86.74
2023-04-18T01:33:46.068Z,86.68
2023-04-18T01:36:35.017Z,87.29
2023-04-18T01:39:23.997Z,86.90
2023-04-18T01:42:15.254Z,86.75
2023-04-18T01:45:07.325Z,86.84
2023-04-18T01:47:55.948Z,86.52
2023-04-18T01:50:44.334Z,87.17
2023-04-18T01:53:33.489Z,87.01
2023-04-18T01:56:22.135Z,87.12
2023-04-18T01:59:11.931Z,87.23
2023-04-18T02:02:00.726Z,87.32
2023-04-18T02:04:49.147Z,87.74
2023-04-18T02:07:37.521Z,87.40
2023-04-18T02:10:26.065Z,87.53
2023-04-18T02:13:15.116Z,87.60
2023-04-18T02:16:05.080Z,87.64
2023-04-18T02:18:53.609Z,86.88
2023-04-18T02:21:44.497Z,87.22
2023-04-18T02:24:32.871Z,87.68
2023-04-18T02:27:21.196Z,87.55
2023-04-18T02:30:10.545Z,87.42
2023-04-18T02:33:00.393Z,87.90
2023-04-18T02:35:48.720Z,86.93
2023-04-18T02:38:37.626Z,87.80
2023-04-18T02:41:26.109Z,87.24
2023-04-18T02:44:17.144Z,87.39
2023-04-18T02:47:05.907Z,86.90
2023-04-18T02:49:58.323Z,87.09
2023-04-18T02:52:48.756Z,87.52
2023-04-18T02:55:41.673Z,87.60
2023-04-18T02:58:29.999Z,87.23
2023-04-18T03:01:19.007Z,87.11
2023-04-18T03:04:15.366Z,87.19
2023-04-18T03:07:17.071Z,86.99
2023-04-18T03:10:06.422Z,87.36
2023-04-18T03:12:57.189Z,86.75
2023-04-18T03:15:45.967Z,86.84
2023-04-18T03:18:35.057Z,86.49
2023-04-18T03:21:24.163Z,86.71
2023-04-18T03:24:14.298Z,86.75
2023-04-18T03:27:06.083Z,86.47
2023-04-18T03:29:55.030Z,86.48
2023-04-18T03:32:44.236Z,86.64
2023-04-18T03:35:32.705Z,87.07
2023-04-18T03:38:21.523Z,86.30
2023-04-18T03:41:11.631Z,86.80
2023-04-18T03:44:00.441Z,86.93
2023-04-18T03:46:49.720Z,87.00
2023-04-18T03:49:39.046Z,86.63
2023-04-18T03:52:29.625Z,86.93
2023-04-18T03:55:19.026Z,86.88
2023-04-18T03:58:09.472Z,87.06
2023-04-18T04:00:58.125Z,86.82
2023-04-18T04:03:47.398Z,87.00
2023-04-18T04:06:36.493Z,86.78
2023-04-18T04:09:25.177Z,87.06
2023-04-18T04:12:13.599Z,86.79
2023-04-18T04:15:03.406Z,86.86
2023-04-18T04:17:52.464Z,87.16
2023-04-18T04:20:42.534Z,87.01
2023-04-18T04:23:35.364Z,86.87
2023-04-18T04:26:24.094Z,87.16
2023-04-18T04:29:21.600Z,87.53
2023-04-18T04:32:12.924Z,87.67
2023-04-18T04:35:02.070Z,87.37
2023-04-18T04:37:52.794Z,87.36
2023-04-18T04:40:47.448Z,87.69
2023-04-18T04:43:36.040Z,87.77
2023-04-18T04:46:24.511Z,87.60
2023-04-18T04:49:14.367Z,87.70
2023-04-18T04:52:03.942Z,88.22
2023-04-18T04:54:53.120Z,87.98
2023-04-18T04:57:44.774Z,88.44
2023-04-18T05:00:47.186Z,87.98
2023-04-18T05:03:36.697Z,87.77
2023-04-18T05:06:27.679Z,87.80
2023-04-18T05:09:16.180Z,88.35
2023-04-18T05:12:05.314Z,88.55
2023-04-18T05:14:53.799Z,88.56
2023-04-18T05:17:42.276Z,88.70
2023-04-18T05:20:30.752Z,89.12
2023-04-18T05:23:20.493Z,89.17
2023-04-18T05:26:08.999Z,89.19
2023-04-18T05:28:57.382Z,89.31
2023-04-18T05:31:45.771Z,89.49
2023-04-18T05:34:38.046Z,89.43
2023-04-18T05:37:27.267Z,89.97
2023-04-18T05:40:17.204Z,89.71
2023-04-18T05:43:05.797Z,90.21
2023-04-18T05:45:55.915Z,90.48
2023-04-18T05:48:46.134Z,90.71
2023-04-18T05:51:34.516Z,90.63
2023-04-18T05:54:22.882Z,90.24
2023-04-18T05:57:12.736Z,90.78
2023-04-18T06:00:01.137Z,91.26
2023-04-18T06:02:49.744Z,91.56
2023-04-18T06:05:38.541Z,91.46
2023-04-18T06:08:26.993Z,91.39
2023-04-18T06:11:15.486Z,91.90
2023-04-18T06:14:05.407Z,91.37
2023-04-18T06:16:53.802Z,92.19
2023-04-18T06:19:42.171Z,91.75
2023-04-18T06:22:30.526Z,91.26
2023-04-18T06:25:19.335Z,91.21
2023-04-18T06:28:07.754Z,90.87
2023-04-18T06:30:57.467Z,90.18
2023-04-18T06:33:45.900Z,91.03
2023-04-18T06:36:34.458Z,91.15
2023-04-18T06:39:22.876Z,90.30
2023-04-18T06:42:11.289Z,90.39
2023-04-18T06:45:07.036Z,89.96
2023-04-18T06:47:56.847Z,90.56
2023-04-18T06:50:45.685Z,90.02
2023-04-18T06:53:34.064Z,89.75
2023-04-18T06:56:22.563Z,89.42
2023-04-18T06:59:11.061Z,89.36
2023-04-18T07:01:59.524Z,89.42
2023-04-18T07:04:49.274Z,89.54
2023-04-18T07:07:37.828Z,90.09
2023-04-18T07:10:26.230Z,89.08
2023-04-18T07:13:14.577Z,89.36
2023-04-18T07:16:03.075Z,89.81
2023-04-18T07:18:51.789Z,90.38
2023-04-18T07:21:43.677Z,90.79
2023-04-18T07:24:32.208Z,89.86
2023-04-18T07:27:20.626Z,89.58
2023-04-18T07:30:10.045Z,90.00
2023-04-18T07:32:58.483Z,90.11
2023-04-18T07:35:46.921Z,90.32
2023-04-18T07:38:36.689Z,89.04
2023-04-18T07:41:25.089Z,88.51
2023-04-18T07:44:13.689Z,88.20
2023-04-18T07:47:02.342Z,88.19
2023-04-18T07:49:50.819Z,88.27
2023-04-18T07:52:39.600Z,87.77
2023-04-18T07:55:29.445Z,87.53
2023-04-18T07:58:17.864Z,88.19
2023-04-18T08:01:07.082Z,86.54
2023-04-18T08:03:57.777Z,87.33
2023-04-18T08:06:46.364Z,85.83
2023-04-18T08:09:34.843Z,85.29
2023-04-18T08:12:24.764Z,84.93
2023-04-18T08:15:13.265Z,86.43
2023-04-18T08:18:02.044Z,85.80
2023-04-18T08:20:50.445Z,85.04
2023-04-18T08:23:38.986Z,84.71
2023-04-18T08:26:27.367Z,83.93
2023-04-18T08:29:17.118Z,84.33
2023-04-18T08:32:07.935Z,82.92
2023-04-18T08:34:57.284Z,82.82
2023-04-18T08:37:45.742Z,83.29
2023-04-18T08:40:34.112Z,82.91
2023-04-18T08:43:22.701Z,79.86
2023-04-18T08:46:12.741Z,80.91
2023-04-18T08:49:04.585Z,81.64
2023-04-18T08:51:54.012Z,80.21
2023-04-18T08:54:43.076Z,80.66
2023-04-18T08:57:33.351Z,79.56
2023-04-18T09:00:22.743Z,79.65
2023-04-18T09:03:15.704Z,79.43
2023-04-18T09:06:09.325Z,78.82
2023-04-18T09:08:58.930Z,77.63
2023-04-18T09:11:47.995Z,79.55
2023-04-18T09:14:37.579Z,77.37
2023-04-18T09:17:34.882Z,77.32
2023-04-18T09:20:35.790Z,76.12
2023-04-18T09:23:26.200Z,76.73
2023-04-18T09:26:14.698Z,78.14
2023-04-18T09:29:03.269Z,75.83
2023-04-18T09:31:57.332Z,75.48
2023-04-18T09:34:45.834Z,76.31
2023-04-18T09:37:36.357Z,76.07
2023-04-18T09:40:25.086Z,76.53
2023-04-18T09:43:20.527Z,75.10
2023-04-18T09:46:09.448Z,74.96
2023-04-18T09:48:57.864Z,74.78
2023-04-18T09:51:46.782Z,74.87
2023-04-18T09:54:39.707Z,75.39
2023-04-18T09:57:29.631Z,73.86
2023-04-18T10:00:24.365Z,73.25
2023-04-18T10:03:14.331Z,73.42
2023-04-18T10:06:02.950Z,72.27
2023-04-18T10:08:52.669Z,73.58
2023-04-18T10:11:42.534Z,73.91
2023-04-18T10:14:31.646Z,73.89
2023-04-18T10:17:21.595Z,73.79
2023-04-18T10:20:11.903Z,72.67
2023-04-18T10:23:00.866Z,72.46
2023-04-18T10:25:50.640Z,73.00
2023-04-18T10:28:54.443Z,72.35
2023-04-18T10:31:43.973Z,72.72
2023-04-18T10:34:32.436Z,73.40
2023-04-18T10:37:20.778Z,73.79
2023-04-18T10:40:10.950Z,71.12
2023-04-18T10:42:59.517Z,72.49
2023-04-18T10:46:20.487Z,71.44
2023-04-18T10:49:18.164Z,72.46
2023-04-18T10:52:06.992Z,72.12
2023-04-18T10:55:11.828Z,71.71
2023-04-18T10:58:00.708Z,73.11
2023-04-18T11:00:49.600Z,71.96
2023-04-18T11:03:39.437Z,72.49
2023-04-18T11:06:27.945Z,73.12
2023-04-18T11:09:17.052Z,72.38
2023-04-18T11:12:07.490Z,72.17
2023-04-18T11:14:55.986Z,71.91
2023-04-18T11:17:45.060Z,72.08
2023-04-18T11:20:41.029Z,72.74
2023-04-18T11:23:29.380Z,72.73
2023-04-18T11:26:19.770Z,72.99
2023-04-18T11:29:08.112Z,73.03
2023-04-18T11:31:58.573Z,73.28
2023-04-18T11:34:47.231Z,73.25
2023-04-18T11:37:37.669Z,73.21
2023-04-18T11:40:26.180Z,74.01
2023-04-18T11:43:21.200Z,72.44
2023-04-18T11:46:09.660Z,71.86
2023-04-18T11:48:58.110Z,72.39
2023-04-18T11:51:48.000Z,70.93
2023-04-18T11:54:39.350Z,70.76
2023-04-18T11:57:28.339Z,70.84
2023-04-18T12:00:19.078Z,71.27
2023-04-18T12:03:11.886Z,71.05
2023-04-18T12:06:01.864Z,70.68
2023-04-18T12:08:50.901Z,71.20
2023-04-18T12:11:42.659Z,71.07
2023-04-18T12:14:31.446Z,71.65
2023-04-18T12:17:19.816Z,71.65
2023-04-18T12:20:10.055Z,70.83
2023-04-18T12:22:58.500Z,71.48
2023-04-18T12:25:46.808Z,71.78
2023-04-18T12:28:36.622Z,72.85
2023-04-18T12:31:25.051Z,72.92
2023-04-18T12:34:13.688Z,73.03
2023-04-18T12:37:03.664Z,73.11
2023-04-18T12:39:52.006Z,73.74
2023-04-18T12:42:41.324Z,73.67
2023-04-18T12:45:31.254Z,74.38
2023-04-18T12:48:19.616Z,72.93
2023-04-18T12:51:07.995Z,73.05
2023-04-18T12:53:56.462Z,73.83
2023-04-18T12:56:46.256Z,74.03
2023-04-18T12:59:34.558Z,73.68
2023-04-18T13:02:24.601Z,73.93
2023-04-18T13:05:14.422Z,74.00
2023-04-18T13:10:55.225Z,74.69
2023-04-18T13:13:43.646Z,74.36
2023-04-18T13:16:32.140Z,74.65
2023-04-18T13:19:22.364Z,75.13
2023-04-18T13:22:10.748Z,74.94
2023-04-18T13:24:59.111Z,74.86
2023-04-18T13:27:47.458Z,75.04
2023-04-18T13:30:36.654Z,75.14
2023-04-18T13:33:24.922Z,74.91
2023-04-18T13:36:14.630Z,74.98
2023-04-18T13:39:04.566Z,75.31
2023-04-18T13:41:54.400Z,74.42
2023-04-18T13:44:42.812Z,74.58
2023-04-18T13:47:31.345Z,75.25
2023-04-18T13:50:20.305Z,74.63
2023-04-18T13:53:10.062Z,74.64
2023-04-18T13:55:58.529Z,74.38
2023-04-18T13:58:46.850Z,75.23
2023-04-18T14:01:35.429Z,73.76
2023-04-18T14:04:24.778Z,74.93
2023-04-18T14:07:15.220Z,74.69
2023-04-18T14:10:05.645Z,74.47
2023-04-18T14:12:54.064Z,74.44
2023-04-18T14:15:42.448Z,73.72
2023-04-18T14:18:30.850Z,73.73
2023-04-18T14:21:19.183Z,73.92
2023-04-18T14:24:09.619Z,74.34
2023-04-18T14:26:59.462Z,73.98
2023-04-18T14:29:48.932Z,74.40
2023-04-18T14:32:37.287Z,73.89
2023-04-18T14:35:25.668Z,73.55
2023-04-18T14:38:14.078Z,74.14
2023-04-18T14:41:02.652Z,74.50
2023-04-18T14:43:52.322Z,74.20
2023-04-18T14:46:41.367Z,74.41
2023-04-18T14:49:29.951Z,74.46
2023-04-18T14:52:18.522Z,74.35
2023-04-18T14:55:08.005Z,73.94
2023-04-18T14:57:56.395Z,73.94
2023-04-18T15:00:46.229Z,74.89
2023-04-18T15:03:34.723Z,75.50
2023-04-18T15:06:23.569Z,74.77
2023-04-18T15:09:11.922Z,75.26
2023-04-18T15:12:00.286Z,75.02
2023-04-18T15:14:48.702Z,74.43
2023-04-18T15:17:38.402Z,74.75
2023-04-18T15:20:27.138Z,74.33
2023-04-18T15:23:15.904Z,72.57
2023-04-18T15:26:04.442Z,73.64
2023-04-18T15:28:55.055Z,72.63
2023-04-18T15:31:43.484Z,73.41
2023-04-18T15:34:34.190Z,73.60
2023-04-18T15:37:22.749Z,73.45
2023-04-18T15:40:16.203Z,71.96
2023-04-18T15:43:04.652Z,72.68
2023-04-18T15:45:53.197Z,72.81
2023-04-18T15:48:41.580Z,72.48
2023-04-18T15:51:31.336Z,73.02
2023-04-18T15:54:19.785Z,72.31
2023-04-18T15:57:08.191Z,72.41
2023-04-18T15:59:57.069Z,72.24
2023-04-18T16:02:46.103Z,73.00
2023-04-18T16:05:34.614Z,72.50
2023-04-18T16:08:24.350Z,72.32
2023-04-18T16:11:13.559Z,72.92
2023-04-18T16:14:01.942Z,73.44
2023-04-18T16:16:50.307Z,73.71
2023-04-18T16:19:39.924Z,73.34
2023-04-18T16:22:28.313Z,73.27
2023-04-18T16:25:18.956Z,73.15
2023-04-18T16:28:07.287Z,73.20
2023-04-18T16:30:55.873Z,74.04
2023-04-18T16:33:45.312Z,73.80
2023-04-18T16:36:35.382Z,73.25
2023-04-18T16:39:23.680Z,73.72
2023-04-18T16:42:15.466Z,74.08
2023-04-18T16:45:04.926Z,74.12
2023-04-18T16:47:54.657Z,74.09
2023-04-18T16:50:45.559Z,73.92
2023-04-18T16:53:33.878Z,74.28
2023-04-18T16:56:22.273Z,74.75
2023-04-18T16:59:11.982Z,74.09
2023-04-18T17:02:00.461Z,74.64
2023-04-18T17:04:49.604Z,74.93
2023-04-18T17:07:38.029Z,74.81
2023-04-18T17:10:26.512Z,75.02
2023-04-18T17:13:14.989Z,75.17
2023-04-18T17:16:05.077Z,75.46
2023-04-18T17:18:53.463Z,75.67
2023-04-18T17:21:41.812Z,76.50
2023-04-18T17:24:30.155Z,75.77
2023-04-18T17:27:18.529Z,76.41
2023-04-18T17:30:08.258Z,77.09
2023-04-18T17:32:58.783Z,77.97
2023-04-18T17:35:48.183Z,79.67
2023-04-18T17:38:36.749Z,80.60
2023-04-18T17:41:25.090Z,82.69
2023-04-18T17:44:13.709Z,82.33
2023-04-18T17:47:02.199Z,81.88
2023-04-18T17:49:52.055Z,81.93
2023-04-18T17:52:40.637Z,81.95
2023-04-18T17:55:29.031Z,82.58
2023-04-18T17:58:17.525Z,82.43
2023-04-18T18:01:15.151Z,83.54
2023-04-18T18:04:03.675Z,82.92
2023-04-18T18:06:57.286Z,83.18
2023-04-18T18:09:46.326Z,83.25
2023-04-18T18:12:36.200Z,83.87
2023-04-18T18:15:25.267Z,84.10
2023-04-18T18:18:13.705Z,84.07
2023-04-18T18:21:02.132Z,85.16
2023-04-18T18:23:51.828Z,85.75
2023-04-18T18:26:40.274Z,85.27
2023-04-18T18:29:28.619Z,84.67
2023-04-18T18:32:17.042Z,85.25
2023-04-18T18:35:06.193Z,85.03
2023-04-18T18:37:54.594Z,84.96
2023-04-18T18:40:44.342Z,84.85
2023-04-18T18:43:32.974Z,86.03
2023-04-18T18:46:21.362Z,85.19
2023-04-18T18:49:09.955Z,85.19
2023-04-18T18:51:58.441Z,85.68
2023-04-18T18:54:46.820Z,85.16
2023-04-18T18:57:37.570Z,85.73
2023-04-18T19:00:26.265Z,85.21
2023-04-18T19:03:15.736Z,85.09
2023-04-18T19:06:07.058Z,85.76
2023-04-18T19:08:55.476Z,85.34
2023-04-18T19:11:43.840Z,85.74
2023-04-18T19:14:33.888Z,86.31
2023-04-18T19:17:24.715Z,86.17
2023-04-18T19:20:13.224Z,85.98
2023-04-18T19:23:01.564Z,86.43
2023-04-18T19:25:50.025Z,86.35
2023-04-18T19:28:38.532Z,85.37
2023-04-18T19:31:28.767Z,86.25
2023-04-18T19:34:18.850Z,85.42
2023-04-18T19:37:07.297Z,84.78
2023-04-18T19:39:55.732Z,85.63
2023-04-18T19:42:44.147Z,85.00
2023-04-18T19:45:32.666Z,84.76
2023-04-18T19:48:22.512Z,84.43
2023-04-18T19:51:11.001Z,84.19
2023-04-18T19:53:59.449Z,84.31
2023-04-18T19:56:47.825Z,85.27
2023-04-18T19:59:36.174Z,84.52
2023-04-18T20:02:24.708Z,84.47
2023-04-18T20:05:14.840Z,84.29
2023-04-18T20:08:03.232Z,84.18
2023-04-18T20:10:51.621Z,84.49
2023-04-18T20:13:40.319Z,83.81
2023-04-18T20:16:29.049Z,84.27
2023-04-18T20:19:17.890Z,84.58
2023-04-18T20:22:07.934Z,84.77
2023-04-18T20:24:57.315Z,84.63
2023-04-18T20:27:45.754Z,83.68
2023-04-18T20:30:34.922Z,84.40
2023-04-18T20:33:23.322Z,83.40
2023-04-18T20:36:11.699Z,84.03
2023-04-18T20:39:02.358Z,83.77
2023-04-18T20:41:51.463Z,83.63
2023-04-18T20:44:40.258Z,83.59
2023-04-18T20:47:28.668Z,83.48
2023-04-18T20:50:18.280Z,83.54
2023-04-18T20:53:06.777Z,83.75
2023-04-18T20:55:56.491Z,83.75
2023-04-18T20:58:44.890Z,83.82
2023-04-18T21:01:33.610Z,83.37
2023-04-18T21:04:24.689Z,83.40
2023-04-18T21:07:13.081Z,84.49
2023-04-18T21:10:01.445Z,84.47
2023-04-18T21:12:51.221Z,84.41
2023-04-18T21:15:39.707Z,84.32
2023-04-18T21:18:28.104Z,84.53
2023-04-18T21:21:16.495Z,84.28
2023-04-18T21:24:05.701Z,84.16
2023-04-18T21:26:54.120Z,84.33
2023-04-18T21:29:43.823Z,83.92
2023-04-18T21:32:32.226Z,83.92
2023-04-18T21:35:22.599Z,83.89
2023-04-18T21:38:12.555Z,83.39
2023-04-18T21:41:00.880Z,84.15
2023-04-18T21:43:49.418Z,84.20
2023-04-18T21:46:39.131Z,83.46
2023-04-18T21:49:27.527Z,83.38
2023-04-18T21:52:16.936Z,83.56
2023-04-18T21:55:06.200Z,83.56
2023-04-18T21:57:55.198Z,83.98
2023-04-18T22:00:43.595Z,84.16
2023-04-18T22:03:34.605Z,83.81
2023-04-18T22:06:23.584Z,83.63
2023-04-18T22:09:12.856Z,83.87
2023-04-18T22:12:03.420Z,83.14
2023-04-18T22:14:52.842Z,84.30
2023-04-18T22:17:41.821Z,83.63
2023-04-18T22:20:31.735Z,83.54
2023-04-18T22:23:20.083Z,83.28
2023-04-18T22:26:08.435Z,82.96
2023-04-18T22:28:56.799Z,83.34
2023-04-18T22:31:45.204Z,83.44
2023-04-18T22:34:33.621Z,83.45
2023-04-18T22:37:23.366Z,83.96
2023-04-18T22:40:12.871Z,83.60
2023-04-18T22:43:01.273Z,83.50
2023-04-18T22:45:49.682Z,83.58
2023-04-18T22:48:38.444Z,84.06
2023-04-18T22:51:28.692Z,83.71
2023-04-18T22:54:18.473Z,83.46
2023-04-18T22:57:06.822Z,83.42
2023-04-18T22:59:55.156Z,83.93
2023-04-18T23:02:43.666Z,84.10
2023-04-18T23:05:32.138Z,83.43
2023-04-18T23:08:22.568Z,84.12
2023-04-18T23:11:12.400Z,84.38
2023-04-18T23:14:00.816Z,83.59
2023-04-18T23:16:49.343Z,84.47
2023-04-18T23:19:37.700Z,84.41
2023-04-18T23:22:26.054Z,85.16
2023-04-18T23:25:14.544Z,84.45
2023-04-18T23:28:04.375Z,84.98
2023-04-18T23:30:53.287Z,85.85
2023-04-18T23:33:41.628Z,85.62
2023-04-18T23:36:29.937Z,86.42
2023-04-18T23:39:18.612Z,86.88
2023-04-18T23:42:07.044Z,86.59
2023-04-18T23:44:57.821Z,86.36
2023-04-18T23:47:46.352Z,87.05
2023-04-18T23:50:35.336Z,86.91
2023-04-18T23:53:24.884Z,86.46
2023-04-18T23:56:13.370Z,86.43
2023-04-18T23:59:01.704Z,86.38
